Time;durP1;ratioP1;P1;durP2;ratioP2;P2;SDS_P1;SDS_P2;PMS_P1;PMS_P2;Temp;Humidity;BMP_temperature;BMP_pressure;BME280_temperature;BME280_humidity;BME280_pressure;Samples;Min_cycle;Max_cycle;Signal;HPM_P1;HPM_P2
2023/03/04 00:01:59;;;;;;;11.05;4.97;;;;;;;;;;5033946;28;20021;-51
2023/03/04 00:04:25;;;;;;;11.45;5.45;;;;;;;;;;5034301;28;20048;-50
2023/03/04 00:06:50;;;;;;;15.13;6.03;;;;;;;;;;5033892;28;20017;-50
2023/03/04 00:09:16;;;;;;;15.85;5.18;;;;;;;;;;5033914;28;20029;-51
2023/03/04 00:11:41;;;;;;;10.80;5.78;;;;;;;;;;5034013;28;20022;-50
2023/03/04 00:14:06;;;;;;;11.23;5.78;;;;;;;;;;5034077;28;20082;-50
2023/03/04 00:16:32;;;;;;;11.88;5.60;;;;;;;;;;5033944;28;20469;-51
2023/03/04 00:18:57;;;;;;;8.93;5.38;;;;;;;;;;5033541;28;20048;-50
2023/03/04 00:21:23;;;;;;;10.23;5.70;;;;;;;;;;5033589;28;20017;-50
2023/03/04 00:23:49;;;;;;;9.50;6.00;;;;;;;;;;5033438;28;20053;-50
2023/03/04 00:26:14;;;;;;;12.27;6.75;;;;;;;;;;5033532;28;20040;-50
2023/03/04 00:28:41;;;;;;;15.50;7.05;;;;;;;;;;5033389;28;20083;-51
2023/03/04 00:31:07;;;;;;;11.68;5.45;;;;;;;;;;5032205;28;20018;-50
2023/03/04 00:33:33;;;;;;;15.70;5.72;;;;;;;;;;5032074;28;20037;-50
2023/03/04 00:35:58;;;;;;;11.73;5.82;;;;;;;;;;5032096;28;20068;-51
2023/03/04 00:38:24;;;;;;;12.95;6.43;;;;;;;;;;5031745;28;20141;-51
2023/03/04 00:40:49;;;;;;;14.05;6.10;;;;;;;;;;5032341;28;20492;-50
2023/03/04 00:43:14;;;;;;;12.73;6.10;;;;;;;;;;5033333;28;20033;-50
2023/03/04 00:45:40;;;;;;;10.20;5.38;;;;;;;;;;5033113;28;20128;-50
2023/03/04 00:48:06;;;;;;;15.02;6.38;;;;;;;;;;5031873;28;20456;-50
2023/03/04 00:50:31;;;;;;;18.55;7.57;;;;;;;;;;5033080;28;20056;-50
2023/03/04 00:52:57;;;;;;;11.70;6.78;;;;;;;;;;5031824;28;20040;-50
2023/03/04 00:55:23;;;;;;;12.45;7.07;;;;;;;;;;5033119;28;20525;-51
2023/03/04 00:57:48;;;;;;;12.30;6.05;;;;;;;;;;5032903;28;20029;-50
2023/03/04 01:00:14;;;;;;;12.10;5.90;;;;;;;;;;5033017;28;20029;-50
2023/03/04 01:02:39;;;;;;;11.27;5.85;;;;;;;;;;5031620;28;20029;-51
2023/03/04 01:05:05;;;;;;;12.55;5.60;;;;;;;;;;5032900;28;20491;-50
2023/03/04 01:07:31;;;;;;;12.07;6.55;;;;;;;;;;5031377;28;20087;-50
2023/03/04 01:09:56;;;;;;;17.25;6.88;;;;;;;;;;5032716;28;20453;-51
2023/03/04 01:12:23;;;;;;;12.52;6.55;;;;;;;;;;5031291;28;20029;-50
2023/03/04 01:14:48;;;;;;;27.05;7.25;;;;;;;;;;5032920;28;20022;-51
2023/03/04 01:17:14;;;;;;;12.48;5.65;;;;;;;;;;5032517;28;20236;-51
2023/03/04 01:19:40;;;;;;;10.02;6.55;;;;;;;;;;5031164;28;20025;-51
2023/03/04 01:22:05;;;;;;;11.35;6.88;;;;;;;;;;5032597;28;20028;-50
2023/03/04 01:24:31;;;;;;;19.27;7.85;;;;;;;;;;5030914;28;20136;-51
2023/03/04 01:26:57;;;;;;;9.98;5.75;;;;;;;;;;5031148;28;20607;-50
2023/03/04 01:29:22;;;;;;;12.50;6.60;;;;;;;;;;5032280;28;20021;-50
2023/03/04 01:31:48;;;;;;;16.67;6.40;;;;;;;;;;5031046;28;20053;-50
2023/03/04 01:34:13;;;;;;;13.70;7.38;;;;;;;;;;5031082;28;20083;-50
2023/03/04 01:36:38;;;;;;;13.10;6.97;;;;;;;;;;5047560;28;20084;-50
2023/03/04 01:39:04;;;;;;;13.25;6.43;;;;;;;;;;5031012;28;20029;-50
2023/03/04 01:41:30;;;;;;;11.57;6.28;;;;;;;;;;5032131;28;20022;-50
2023/03/04 01:43:56;;;;;;;8.77;5.78;;;;;;;;;;5030950;28;20033;-51
2023/03/04 01:46:22;;;;;;;13.57;7.05;;;;;;;;;;5030775;28;20112;-50
2023/03/04 01:48:47;;;;;;;11.73;6.60;;;;;;;;;;5032070;28;20423;-50
2023/03/04 01:51:14;;;;;;;10.50;5.78;;;;;;;;;;5031758;28;20030;-50
2023/03/04 01:53:41;;;;;;;15.30;5.72;;;;;;;;;;5030682;28;20407;-50
2023/03/04 01:56:18;;;;;;;11.95;6.20;;;;;;;;;;5032194;28;20036;-50
2023/03/04 01:58:44;;;;;;;11.93;6.07;;;;;;;;;;5047121;28;20037;-50
2023/03/04 02:01:10;;;;;;;14.25;6.63;;;;;;;;;;5031830;28;20021;-50
2023/03/04 02:03:36;;;;;;;14.65;6.57;;;;;;;;;;5030579;28;20029;-50
2023/03/04 02:06:02;;;;;;;11.88;6.53;;;;;;;;;;5031869;28;20434;-50
2023/03/04 02:08:27;;;;;;;14.50;7.90;;;;;;;;;;5031652;28;20088;-50
2023/03/04 02:10:53;;;;;;;17.58;6.97;;;;;;;;;;5030515;28;20017;-51
2023/03/04 02:13:19;;;;;;;11.63;7.03;;;;;;;;;;5031637;28;20026;-50
2023/03/04 02:15:44;;;;;;;18.58;7.72;;;;;;;;;;5031966;28;20013;-50
2023/03/04 02:18:15;;;;;;;16.17;8.48;;;;;;;;;;5030277;28;20377;-50
2023/03/04 02:20:44;;;;;;;10.45;6.00;;;;;;;;;;5030347;28;20128;-50
2023/03/04 02:23:12;;;;;;;9.63;6.35;;;;;;;;;;5031592;28;20040;-51
2023/03/04 02:25:47;;;;;;;14.45;7.10;;;;;;;;;;5031401;28;20415;-50
2023/03/04 02:28:13;;;;;;;16.17;7.13;;;;;;;;;;5030352;28;20061;-51
2023/03/04 02:30:38;;;;;;;12.82;7.75;;;;;;;;;;5030270;28;20068;-50
2023/03/04 02:33:04;;;;;;;12.25;6.80;;;;;;;;;;5030455;28;20041;-50
2023/03/04 02:35:29;;;;;;;14.82;7.80;;;;;;;;;;5031502;28;20017;-50
2023/03/04 02:37:55;;;;;;;10.90;7.43;;;;;;;;;;5030138;28;20402;-51
2023/03/04 02:40:28;;;;;;;16.02;8.18;;;;;;;;;;5030181;28;20071;-50
2023/03/04 02:42:53;;;;;;;14.90;8.07;;;;;;;;;;5030170;28;20033;-50
2023/03/04 02:45:35;;;;;;;19.00;5.75;;;;;;;;;;5030117;28;20116;-50
2023/03/04 02:48:01;;;;;;;13.82;7.22;;;;;;;;;;5030157;28;20502;-50
2023/03/04 02:50:28;;;;;;;10.13;6.55;;;;;;;;;;5031328;28;20017;-50
2023/03/04 02:52:53;;;;;;;15.23;7.13;;;;;;;;;;5030229;28;20037;-50
2023/03/04 02:55:19;;;;;;;12.30;6.60;;;;;;;;;;5030007;28;20163;-51
2023/03/04 02:57:44;;;;;;;13.95;6.38;;;;;;;;;;5031177;28;20498;-50
2023/03/04 03:00:10;;;;;;;13.15;6.50;;;;;;;;;;5046682;28;20033;-50
2023/03/04 03:02:35;;;;;;;11.32;5.75;;;;;;;;;;5047255;28;20030;-50
2023/03/04 03:05:01;;;;;;;11.75;6.70;;;;;;;;;;5033889;28;20025;-50
2023/03/04 03:07:27;;;;;;;14.18;6.72;;;;;;;;;;5035238;28;20029;-50
2023/03/04 03:09:52;;;;;;;12.00;6.35;;;;;;;;;;5033756;28;20029;-50
2023/03/04 03:12:18;;;;;;;12.27;6.63;;;;;;;;;;5035116;28;20084;-51
2023/03/04 03:14:43;;;;;;;15.32;6.50;;;;;;;;;;5035197;28;20022;-50
2023/03/04 03:17:11;;;;;;;13.70;7.03;;;;;;;;;;5033589;28;20064;-50
2023/03/04 03:19:36;;;;;;;14.27;6.90;;;;;;;;;;5033527;28;20053;-50
2023/03/04 03:22:04;;;;;;;14.57;7.10;;;;;;;;;;5017509;28;20484;-50
2023/03/04 03:24:30;;;;;;;15.32;7.15;;;;;;;;;;5033314;28;20088;-50
2023/03/04 03:26:56;;;;;;;17.15;6.80;;;;;;;;;;5034708;28;20037;-50
2023/03/04 03:29:22;;;;;;;16.98;6.95;;;;;;;;;;5033377;28;20045;-50
2023/03/04 03:31:47;;;;;;;15.77;8.10;;;;;;;;;;5034714;28;20018;-50
2023/03/04 03:34:13;;;;;;;10.90;5.78;;;;;;;;;;5033287;28;20593;-51
2023/03/04 03:36:38;;;;;;;9.50;5.72;;;;;;;;;;5033253;28;20033;-50
2023/03/04 03:39:04;;;;;;;11.23;6.47;;;;;;;;;;5034418;28;20029;-50
2023/03/04 03:41:30;;;;;;;19.67;8.18;;;;;;;;;;5034278;28;20488;-50
2023/03/04 03:43:56;;;;;;;15.35;6.85;;;;;;;;;;5034455;28;20037;-50
2023/03/04 03:46:21;;;;;;;16.42;6.75;;;;;;;;;;5034322;28;20040;-51
2023/03/04 03:48:46;;;;;;;16.30;6.90;;;;;;;;;;5032979;28;20025;-50
2023/03/04 03:51:12;;;;;;;15.85;6.20;;;;;;;;;;5033069;28;20025;-51
2023/03/04 03:53:37;;;;;;;14.10;6.28;;;;;;;;;;5034169;28;20040;-51
2023/03/04 03:56:03;;;;;;;12.35;7.63;;;;;;;;;;5034170;28;20387;-50
2023/03/04 03:58:28;;;;;;;12.80;5.57;;;;;;;;;;5033974;28;20037;-51
2023/03/04 04:00:53;;;;;;;13.27;6.32;;;;;;;;;;5034231;28;20026;-50
2023/03/04 04:03:19;;;;;;;14.70;6.53;;;;;;;;;;5032808;28;20179;-50
2023/03/04 04:05:44;;;;;;;14.50;7.50;;;;;;;;;;5033986;28;20036;-51
2023/03/04 04:08:12;;;;;;;14.68;6.70;;;;;;;;;;5034068;28;20025;-50
2023/03/04 04:10:37;;;;;;;10.73;5.97;;;;;;;;;;5033826;28;20026;-50
2023/03/04 04:13:02;;;;;;;13.77;7.03;;;;;;;;;;5033844;28;20022;-53
2023/03/04 04:15:28;;;;;;;12.40;6.03;;;;;;;;;;5048887;28;20037;-50
2023/03/04 04:17:53;;;;;;;18.25;7.70;;;;;;;;;;5033607;28;20026;-50
2023/03/04 04:20:18;;;;;;;12.27;6.95;;;;;;;;;;5033767;28;20026;-50
2023/03/04 04:22:44;;;;;;;16.67;6.88;;;;;;;;;;5032337;28;20033;-51
2023/03/04 04:25:09;;;;;;;11.95;7.03;;;;;;;;;;5033475;28;20488;-50
2023/03/04 04:27:35;;;;;;;13.10;6.78;;;;;;;;;;5015677;28;20026;-50
2023/03/04 04:30:00;;;;;;;17.85;7.63;;;;;;;;;;5032293;28;20079;-51
2023/03/04 04:32:25;;;;;;;9.77;5.72;;;;;;;;;;5033410;28;20060;-51
2023/03/04 04:34:51;;;;;;;14.70;7.05;;;;;;;;;;5033522;28;20137;-51
2023/03/04 04:37:16;;;;;;;15.23;7.60;;;;;;;;;;5033259;28;20017;-50
2023/03/04 04:39:41;;;;;;;16.17;7.07;;;;;;;;;;5032405;28;20037;-50
2023/03/04 04:42:08;;;;;;;11.68;5.90;;;;;;;;;;5033424;28;20467;-50
2023/03/04 04:44:33;;;;;;;17.65;7.95;;;;;;;;;;5033236;28;20025;-50
2023/03/04 04:46:59;;;;;;;13.77;7.53;;;;;;;;;;5033239;28;20024;-50
2023/03/04 04:49:24;;;;;;;17.52;8.80;;;;;;;;;;5031965;28;20029;-50
2023/03/04 04:51:49;;;;;;;15.60;7.80;;;;;;;;;;5033125;28;20091;-50
2023/03/04 04:54:15;;;;;;;17.95;7.20;;;;;;;;;;5033178;28;20029;-50
2023/03/04 04:56:40;;;;;;;16.00;8.10;;;;;;;;;;5033011;28;20017;-50
2023/03/04 04:59:07;;;;;;;15.45;8.63;;;;;;;;;;5048205;28;20049;-50
2023/03/04 05:01:33;;;;;;;14.00;6.53;;;;;;;;;;5032961;28;20096;-50
2023/03/04 05:03:58;;;;;;;24.42;8.45;;;;;;;;;;5032975;28;20120;-50
2023/03/04 05:06:24;;;;;;;13.50;7.28;;;;;;;;;;5032735;28;20075;-50
2023/03/04 05:08:49;;;;;;;16.30;7.85;;;;;;;;;;5033036;28;20042;-50
2023/03/04 05:11:15;;;;;;;17.08;8.32;;;;;;;;;;5033076;28;20029;-50
2023/03/04 05:13:41;;;;;;;19.35;7.55;;;;;;;;;;5032565;28;20476;-50
2023/03/04 05:16:06;;;;;;;14.10;8.23;;;;;;;;;;5032668;28;20060;-50
2023/03/04 05:18:32;;;;;;;22.55;7.93;;;;;;;;;;5032437;28;20112;-50
2023/03/04 05:20:58;;;;;;;14.15;7.43;;;;;;;;;;5032534;28;20028;-50
2023/03/04 05:23:24;;;;;;;19.42;7.20;;;;;;;;;;5032416;28;20049;-51
2023/03/04 05:25:50;;;;;;;19.67;10.13;;;;;;;;;;5032011;28;20672;-50
2023/03/04 05:28:15;;;;;;;20.45;6.88;;;;;;;;;;5032357;28;20546;-50
2023/03/04 05:30:41;;;;;;;15.20;7.93;;;;;;;;;;5032329;28;20018;-50
2023/03/04 05:33:08;;;;;;;15.80;6.78;;;;;;;;;;5032545;28;20529;-50
2023/03/04 05:35:37;;;;;;;14.35;8.00;;;;;;;;;;5032275;28;20016;-50
2023/03/04 05:38:04;;;;;;;10.98;6.68;;;;;;;;;;5032293;28;20477;-50
2023/03/04 05:40:29;;;;;;;19.20;7.72;;;;;;;;;;5032257;28;20079;-51
2023/03/04 05:42:55;;;;;;;10.90;6.30;;;;;;;;;;5031018;28;20532;-51
2023/03/04 05:45:21;;;;;;;11.20;5.88;;;;;;;;;;5032162;28;20024;-51
2023/03/04 05:47:46;;;;;;;12.02;6.88;;;;;;;;;;5030786;28;20033;-50
2023/03/04 05:50:11;;;;;;;18.35;7.93;;;;;;;;;;5032286;28;20431;-50
2023/03/04 05:52:37;;;;;;;13.82;8.00;;;;;;;;;;5031899;28;20037;-51
2023/03/04 05:55:02;;;;;;;15.95;7.68;;;;;;;;;;5031935;28;20076;-53
2023/03/04 05:57:28;;;;;;;13.82;6.45;;;;;;;;;;5031984;28;20099;-50
2023/03/04 05:59:53;;;;;;;18.45;8.27;;;;;;;;;;5032235;28;20487;-50
2023/03/04 06:02:18;;;;;;;13.20;6.43;;;;;;;;;;5031756;28;20392;-50
2023/03/04 06:04:44;;;;;;;13.57;8.13;;;;;;;;;;5031796;28;20112;-50
2023/03/04 06:07:09;;;;;;;15.68;7.22;;;;;;;;;;5031749;28;20104;-51
2023/03/04 06:09:35;;;;;;;14.05;7.22;;;;;;;;;;5031733;28;20403;-51
2023/03/04 06:12:00;;;;;;;14.07;6.60;;;;;;;;;;5031835;28;20416;-50
2023/03/04 06:14:26;;;;;;;15.15;8.32;;;;;;;;;;5032043;28;20100;-50
2023/03/04 06:16:51;;;;;;;19.73;7.53;;;;;;;;;;5031673;28;20395;-50
2023/03/04 06:19:17;;;;;;;16.25;7.57;;;;;;;;;;5031719;28;20132;-50
2023/03/04 06:21:42;;;;;;;18.30;9.13;;;;;;;;;;5031925;28;20079;-50
2023/03/04 06:24:08;;;;;;;15.13;7.43;;;;;;;;;;5031451;28;20484;-50
2023/03/04 06:26:33;;;;;;;20.08;8.85;;;;;;;;;;5031764;28;20029;-50
2023/03/04 06:28:59;;;;;;;17.73;8.48;;;;;;;;;;5031618;28;20556;-50
2023/03/04 06:31:25;;;;;;;24.20;9.30;;;;;;;;;;5031389;28;20033;-50
2023/03/04 06:33:50;;;;;;;19.90;9.35;;;;;;;;;;5031558;28;20025;-50
2023/03/04 06:36:16;;;;;;;17.95;7.45;;;;;;;;;;5031660;28;20083;-50
2023/03/04 06:38:42;;;;;;;16.88;8.23;;;;;;;;;;5035393;28;20037;-50
2023/03/04 06:41:09;;;;;;;19.23;10.63;;;;;;;;;;5035447;28;20116;-51
2023/03/04 06:43:34;;;;;;;21.90;8.55;;;;;;;;;;5035642;28;20021;-51
2023/03/04 06:46:00;;;;;;;23.08;8.23;;;;;;;;;;5034103;28;20104;-51
2023/03/04 06:48:25;;;;;;;17.30;9.52;;;;;;;;;;5035421;28;20025;-50
2023/03/04 06:50:50;;;;;;;18.13;8.45;;;;;;;;;;5035420;28;20540;-50
2023/03/04 06:53:16;;;;;;;22.95;9.57;;;;;;;;;;5035281;28;20034;-50
2023/03/04 06:55:41;;;;;;;24.77;10.75;;;;;;;;;;5035565;28;20044;-50
2023/03/04 06:58:07;;;;;;;15.07;7.57;;;;;;;;;;5035331;28;20087;-50
2023/03/04 07:00:32;;;;;;;13.75;6.85;;;;;;;;;;5035216;28;20029;-51
2023/03/04 07:02:58;;;;;;;17.13;6.72;;;;;;;;;;5035352;28;20029;-50
2023/03/04 07:05:24;;;;;;;17.65;7.80;;;;;;;;;;5035450;28;20021;-50
2023/03/04 07:07:49;;;;;;;19.42;9.82;;;;;;;;;;5035134;28;20025;-50
2023/03/04 07:10:16;;;;;;;12.02;7.28;;;;;;;;;;5035166;28;20387;-50
2023/03/04 07:12:41;;;;;;;17.23;7.28;;;;;;;;;;5033774;28;20354;-50
2023/03/04 07:15:07;;;;;;;13.50;7.85;;;;;;;;;;5033638;28;20036;-50
2023/03/04 07:17:33;;;;;;;17.10;7.90;;;;;;;;;;5034738;28;20044;-50
2023/03/04 07:19:59;;;;;;;15.40;8.65;;;;;;;;;;5033524;28;20403;-50
2023/03/04 07:22:24;;;;;;;17.38;8.02;;;;;;;;;;5034928;28;20030;-50
2023/03/04 07:24:50;;;;;;;17.98;7.32;;;;;;;;;;5034712;28;20045;-50
2023/03/04 07:27:15;;;;;;;18.38;7.95;;;;;;;;;;5034950;28;20037;-50
2023/03/04 07:29:40;;;;;;;19.15;8.52;;;;;;;;;;5034545;28;20109;-50
2023/03/04 07:32:07;;;;;;;16.92;6.40;;;;;;;;;;5034633;28;20116;-50
2023/03/04 07:34:32;;;;;;;10.82;6.90;;;;;;;;;;5034550;28;20095;-50
2023/03/04 07:36:58;;;;;;;13.70;5.68;;;;;;;;;;5033543;28;20033;-54
2023/03/04 07:39:23;;;;;;;15.57;7.63;;;;;;;;;;5033332;28;20041;-50
2023/03/04 07:41:49;;;;;;;15.43;6.65;;;;;;;;;;5034466;28;20028;-51
2023/03/04 07:44:15;;;;;;;12.10;5.53;;;;;;;;;;5034436;28;20033;-50
2023/03/04 07:46:40;;;;;;;13.32;5.75;;;;;;;;;;5033314;28;20024;-50
2023/03/04 07:49:05;;;;;;;23.17;8.05;;;;;;;;;;5033755;28;20039;-40
2023/03/04 07:51:31;;;;;;;19.23;8.13;;;;;;;;;;5034336;28;20057;-41
2023/03/04 07:53:58;;;;;;;18.60;9.85;;;;;;;;;;5034230;28;20075;-41
2023/03/04 07:56:24;;;;;;;11.50;5.93;;;;;;;;;;5034414;28;20021;-40
2023/03/04 07:58:53;;;;;;;16.77;6.47;;;;;;;;;;5034325;28;20049;-40
2023/03/04 08:01:20;;;;;;;8.85;4.65;;;;;;;;;;5033991;28;20018;-41
2023/03/04 08:03:46;;;;;;;11.27;5.88;;;;;;;;;;5033978;28;20488;-41
2023/03/04 08:06:13;;;;;;;10.35;5.88;;;;;;;;;;5034224;28;20021;-40
2023/03/04 08:08:39;;;;;;;11.13;6.03;;;;;;;;;;5033905;28;20037;-40
2023/03/04 08:11:06;;;;;;;15.52;6.65;;;;;;;;;;5033841;28;20018;-41
2023/03/04 08:13:31;;;;;;;20.42;8.10;;;;;;;;;;5034045;28;20112;-41
2023/03/04 08:15:56;;;;;;;14.10;7.05;;;;;;;;;;5033069;28;20228;-42
2023/03/04 08:18:22;;;;;;;14.45;8.05;;;;;;;;;;5033368;28;20033;-42
2023/03/04 08:20:47;;;;;;;13.88;8.15;;;;;;;;;;5034050;28;20418;-42
2023/03/04 08:23:13;;;;;;;16.88;6.53;;;;;;;;;;5033690;28;20044;-42
2023/03/04 16:30:26;;;;;;;3.63;1.90;;;;;;;;;;5129325;27;20116;-58
2023/03/04 16:32:52;;;;;;;4.40;2.45;;;;;;;;;;5130358;28;20375;-58
2023/03/04 16:35:18;;;;;;;3.47;2.03;;;;;;;;;;5129516;28;20065;-58
2023/03/04 16:37:44;;;;;;;1.48;1.27;;;;;;;;;;5111489;28;20027;-57
2023/03/04 16:40:12;;;;;;;10.05;4.75;;;;;;;;;;5129950;28;20495;-57
2023/03/04 16:42:38;;;;;;;11.85;4.07;;;;;;;;;;5129467;28;20031;-58
2023/03/04 16:45:04;;;;;;;3.80;1.80;;;;;;;;;;5130034;28;20019;-58
2023/03/04 16:47:30;;;;;;;10.40;2.60;;;;;;;;;;5130080;28;20019;-58
2023/03/04 16:49:57;;;;;;;12.00;3.00;;;;;;;;;;5129877;28;20122;-59
2023/03/04 16:52:30;;;;;;;3.17;1.80;;;;;;;;;;5130089;28;20649;-59
2023/03/04 16:54:56;;;;;;;3.47;2.20;;;;;;;;;;5129998;28;20023;-60
2023/03/04 16:57:22;;;;;;;2.88;1.83;;;;;;;;;;5129951;28;20110;-60
2023/03/04 16:59:48;;;;;;;4.03;2.28;;;;;;;;;;5129808;28;20552;-60
2023/03/04 17:02:15;;;;;;;5.20;1.88;;;;;;;;;;5129913;28;20051;-61
2023/03/04 17:04:41;;;;;;;5.57;1.52;;;;;;;;;;5111631;28;20023;-62
2023/03/04 17:07:06;;;;;;;6.75;1.83;;;;;;;;;;5094357;28;20019;-62
2023/03/04 17:09:32;;;;;;;3.25;1.73;;;;;;;;;;5111267;28;20035;-62
2023/03/04 17:11:58;;;;;;;1.55;1.45;;;;;;;;;;5129632;28;20028;-61
2023/03/04 17:14:23;;;;;;;7.60;1.50;;;;;;;;;;5111304;28;20042;-62
2023/03/04 17:16:49;;;;;;;2.30;1.40;;;;;;;;;;5111115;28;20019;-62
2023/03/04 17:19:14;;;;;;;2.22;1.33;;;;;;;;;;5129529;28;20031;-62
2023/03/04 17:21:40;;;;;;;9.35;3.67;;;;;;;;;;5111077;28;20357;-61
2023/03/04 17:24:09;;;;;;;3.28;1.35;;;;;;;;;;5111638;28;20033;-61
2023/03/04 17:26:35;;;;;;;1.55;1.45;;;;;;;;;;5129123;28;20103;-61
2023/03/04 17:29:01;;;;;;;8.55;2.05;;;;;;;;;;5127633;28;20138;-61
2023/03/04 17:31:26;;;;;;;1.95;1.73;;;;;;;;;;5129366;28;20023;-62
2023/03/04 17:33:52;;;;;;;5.00;1.55;;;;;;;;;;5128646;27;20461;-63
2023/03/04 17:36:18;;;;;;;3.05;2.63;;;;;;;;;;5128919;27;20023;-63
2023/03/04 17:38:44;;;;;;;2.30;1.95;;;;;;;;;;5127708;28;20439;-63
2023/03/04 17:41:14;;;;;;;2.20;1.60;;;;;;;;;;5119018;27;20028;-63
2023/03/04 17:43:43;;;;;;;4.18;1.85;;;;;;;;;;5115406;28;20594;-64
2023/03/04 17:46:09;;;;;;;1.10;1.00;;;;;;;;;;5115263;28;20499;-64
2023/03/04 17:48:35;;;;;;;2.70;1.77;;;;;;;;;;5113879;28;20040;-65
2023/03/04 17:51:01;;;;;;;3.47;2.70;;;;;;;;;;5115054;28;20016;-65
2023/03/04 17:53:26;;;;;;;1.35;1.02;;;;;;;;;;5115174;28;20023;-66
2023/03/04 17:55:53;;;;;;;3.15;1.65;;;;;;;;;;5115129;28;20022;-65
2023/03/04 17:58:18;;;;;;;3.50;1.80;;;;;;;;;;5115125;27;20068;-65
2023/03/04 18:00:44;;;;;;;2.63;1.63;;;;;;;;;;5115120;28;20095;-65
2023/03/04 18:03:11;;;;;;;2.08;1.38;;;;;;;;;;5113716;28;20028;-65
2023/03/04 18:05:37;;;;;;;2.65;1.80;;;;;;;;;;5113659;28;20023;-65
2023/03/04 18:08:02;;;;;;;2.17;1.50;;;;;;;;;;5113483;28;20386;-65
2023/03/04 18:10:28;;;;;;;3.50;1.52;;;;;;;;;;5114966;28;20120;-64
2023/03/04 18:12:53;;;;;;;2.58;1.83;;;;;;;;;;5114666;28;20019;-65
2023/03/04 18:15:19;;;;;;;1.52;1.10;;;;;;;;;;5114798;28;20016;-65
2023/03/04 18:17:46;;;;;;;8.30;2.03;;;;;;;;;;5114854;28;20469;-64
2023/03/04 18:20:11;;;;;;;3.70;1.77;;;;;;;;;;5114703;28;20053;-64
2023/03/04 18:22:37;;;;;;;3.92;1.80;;;;;;;;;;5113610;28;20028;-65
2023/03/04 18:25:04;;;;;;;4.13;1.70;;;;;;;;;;5114563;27;20016;-65
2023/03/04 18:27:29;;;;;;;2.42;1.83;;;;;;;;;;5114854;28;20028;-64
2023/03/04 18:29:55;;;;;;;1.65;1.15;;;;;;;;;;5114086;28;20043;-64
2023/03/04 18:32:21;;;;;;;3.67;1.88;;;;;;;;;;5113137;28;20062;-64
2023/03/04 18:34:46;;;;;;;4.40;1.52;;;;;;;;;;5114498;28;20215;-64
2023/03/04 18:37:11;;;;;;;3.72;1.65;;;;;;;;;;5095908;28;20059;-64
2023/03/04 18:39:37;;;;;;;2.08;1.45;;;;;;;;;;5114306;28;20054;-65
2023/03/04 18:42:03;;;;;;;2.85;1.30;;;;;;;;;;5112896;28;20055;-64
2023/03/04 18:44:28;;;;;;;3.03;1.70;;;;;;;;;;5112861;28;20449;-64
2023/03/04 18:46:55;;;;;;;2.30;1.63;;;;;;;;;;5114149;28;20066;-64
2023/03/04 18:49:21;;;;;;;5.55;2.15;;;;;;;;;;5114335;28;20445;-64
2023/03/04 18:51:47;;;;;;;3.53;2.10;;;;;;;;;;5113333;28;20073;-65
2023/03/04 18:54:13;;;;;;;5.63;1.67;;;;;;;;;;5113698;28;20385;-64
2023/03/04 18:56:39;;;;;;;3.15;1.48;;;;;;;;;;5112714;28;20032;-64
2023/03/04 18:59:07;;;;;;;6.38;1.80;;;;;;;;;;5112412;28;20023;-64
2023/03/04 19:01:33;;;;;;;1.15;1.08;;;;;;;;;;5112484;28;20481;-63
2023/03/04 19:04:03;;;;;;;3.20;1.83;;;;;;;;;;5112856;28;20150;-64
2023/03/04 19:06:29;;;;;;;3.08;1.80;;;;;;;;;;5112818;28;20389;-65
2023/03/04 19:08:54;;;;;;;3.05;1.60;;;;;;;;;;5113495;28;20020;-65
2023/03/04 19:11:21;;;;;;;4.57;1.95;;;;;;;;;;5113726;28;20039;-65
2023/03/04 19:13:46;;;;;;;3.83;1.80;;;;;;;;;;5113662;27;20016;-65
2023/03/04 19:16:12;;;;;;;1.83;1.38;;;;;;;;;;5113502;28;20031;-65
2023/03/04 19:18:37;;;;;;;2.90;1.65;;;;;;;;;;5112276;28;20115;-65
2023/03/04 19:21:03;;;;;;;10.38;2.35;;;;;;;;;;5112009;28;20032;-65
2023/03/04 19:23:29;;;;;;;1.88;1.63;;;;;;;;;;5112207;28;20015;-66
2023/03/04 19:25:54;;;;;;;4.13;2.28;;;;;;;;;;5112124;28;20028;-66
2023/03/04 19:28:20;;;;;;;9.48;2.95;;;;;;;;;;5111881;28;20397;-66
2023/03/04 19:30:45;;;;;;;2.85;1.60;;;;;;;;;;5112089;28;20465;-66
2023/03/04 19:33:10;;;;;;;1.95;1.42;;;;;;;;;;5111905;28;20059;-65
2023/03/04 19:35:40;;;;;;;3.47;1.52;;;;;;;;;;5095003;28;20115;-65
2023/03/04 19:38:06;;;;;;;3.03;1.55;;;;;;;;;;5111202;28;20469;-65
2023/03/04 19:40:33;;;;;;;3.13;2.63;;;;;;;;;;5111226;28;20077;-65
2023/03/04 19:42:59;;;;;;;4.05;2.20;;;;;;;;;;5111881;28;20492;-64
2023/03/04 19:45:24;;;;;;;3.88;2.38;;;;;;;;;;5113029;28;20020;-65
2023/03/04 19:47:50;;;;;;;4.05;2.30;;;;;;;;;;5111869;28;20024;-65
2023/03/04 19:50:16;;;;;;;3.95;2.40;;;;;;;;;;5112896;28;20446;-65
2023/03/04 19:52:44;;;;;;;2.40;1.38;;;;;;;;;;5112906;28;20055;-65
2023/03/04 19:55:11;;;;;;;2.30;1.83;;;;;;;;;;5111206;28;20024;-65
2023/03/04 19:57:39;;;;;;;3.92;1.77;;;;;;;;;;5112346;28;20019;-65
2023/03/04 20:00:05;;;;;;;3.95;2.47;;;;;;;;;;5112263;28;20054;-65
2023/03/04 20:02:30;;;;;;;4.70;2.00;;;;;;;;;;5112283;28;20078;-65
2023/03/04 20:04:57;;;;;;;3.35;1.77;;;;;;;;;;5111908;28;20073;-65
2023/03/04 20:07:23;;;;;;;3.20;1.90;;;;;;;;;;5111226;28;20034;-64
2023/03/04 20:09:49;;;;;;;2.42;1.52;;;;;;;;;;5111998;28;20036;-65
2023/03/04 20:12:14;;;;;;;2.05;1.70;;;;;;;;;;5112177;28;20392;-65
2023/03/04 20:14:40;;;;;;;6.65;2.55;;;;;;;;;;5112412;28;20126;-65
2023/03/04 20:17:05;;;;;;;3.85;2.22;;;;;;;;;;5110889;28;20027;-65
2023/03/04 20:19:32;;;;;;;5.82;2.08;;;;;;;;;;5110800;28;20016;-65
2023/03/04 20:21:57;;;;;;;2.72;1.92;;;;;;;;;;5110640;28;20461;-65
2023/03/04 20:24:23;;;;;;;10.48;2.20;;;;;;;;;;5110782;28;20019;-64
2023/03/04 20:26:49;;;;;;;2.83;1.92;;;;;;;;;;5110770;28;20031;-65
2023/03/04 20:29:14;;;;;;;3.95;2.33;;;;;;;;;;5111529;28;20070;-64
2023/03/04 20:31:40;;;;;;;3.65;2.30;;;;;;;;;;5111925;28;20031;-65
2023/03/04 20:34:06;;;;;;;3.80;1.98;;;;;;;;;;5111755;28;20016;-65
2023/03/04 20:36:32;;;;;;;9.20;2.85;;;;;;;;;;5111923;28;20023;-65
2023/03/04 20:38:57;;;;;;;4.13;2.00;;;;;;;;;;5110466;28;20024;-65
2023/03/04 20:41:24;;;;;;;6.38;3.13;;;;;;;;;;5111753;28;20111;-64
2023/03/04 20:43:50;;;;;;;3.50;1.73;;;;;;;;;;5111877;28;20024;-65
2023/03/04 20:46:27;;;;;;;4.95;2.35;;;;;;;;;;5111714;28;20032;-65
2023/03/04 20:48:53;;;;;;;3.30;2.05;;;;;;;;;;5110518;28;20036;-65
2023/03/04 20:51:19;;;;;;;4.32;2.40;;;;;;;;;;5112007;28;20030;-64
2023/03/04 20:53:45;;;;;;;9.70;2.42;;;;;;;;;;5111686;28;20055;-65
2023/03/04 20:56:10;;;;;;;7.05;2.22;;;;;;;;;;5111665;28;20068;-65
2023/03/04 20:58:36;;;;;;;7.95;2.58;;;;;;;;;;5110427;28;20461;-64
2023/03/04 21:01:02;;;;;;;5.85;2.70;;;;;;;;;;5110250;28;20034;-65
2023/03/04 21:03:28;;;;;;;7.30;2.78;;;;;;;;;;5111607;28;20038;-65
2023/03/04 21:05:53;;;;;;;4.30;2.60;;;;;;;;;;5110283;28;20028;-65
2023/03/04 21:08:20;;;;;;;4.35;2.58;;;;;;;;;;5111404;28;20050;-65
2023/03/04 21:10:47;;;;;;;2.78;2.15;;;;;;;;;;5111568;28;20055;-64
2023/03/04 21:13:15;;;;;;;4.15;2.22;;;;;;;;;;5111434;28;20024;-65
2023/03/04 21:15:47;;;;;;;6.35;2.38;;;;;;;;;;5111567;28;20027;-65
2023/03/04 21:18:12;;;;;;;2.85;2.08;;;;;;;;;;5115072;28;20516;-65
2023/03/04 21:20:38;;;;;;;3.65;2.42;;;;;;;;;;5115406;28;20016;-65
2023/03/04 21:23:04;;;;;;;10.70;3.60;;;;;;;;;;5115186;28;20031;-65
2023/03/04 21:25:29;;;;;;;8.70;3.25;;;;;;;;;;5113880;28;20423;-65
2023/03/04 21:27:55;;;;;;;6.13;2.38;;;;;;;;;;5113887;28;20083;-65
2023/03/04 21:30:20;;;;;;;4.80;2.88;;;;;;;;;;5114881;28;20122;-65
2023/03/04 21:32:46;;;;;;;9.30;3.15;;;;;;;;;;5115015;28;20484;-66
2023/03/04 21:35:12;;;;;;;3.17;2.28;;;;;;;;;;5114997;28;20020;-65
2023/03/04 21:37:40;;;;;;;4.82;2.08;;;;;;;;;;5114945;28;20598;-65
2023/03/04 21:40:06;;;;;;;2.92;2.15;;;;;;;;;;5114960;28;20027;-65
2023/03/04 21:42:32;;;;;;;6.40;3.58;;;;;;;;;;5115214;28;20050;-65
2023/03/04 21:44:57;;;;;;;7.00;3.40;;;;;;;;;;5114225;28;20028;-65
2023/03/04 21:47:23;;;;;;;5.05;2.53;;;;;;;;;;5115280;28;20474;-65
2023/03/04 21:49:48;;;;;;;3.67;1.75;;;;;;;;;;5115235;28;20031;-65
2023/03/04 21:52:14;;;;;;;3.20;2.47;;;;;;;;;;5115450;28;20023;-66
2023/03/04 21:54:39;;;;;;;2.65;2.10;;;;;;;;;;5115188;28;20377;-65
2023/03/04 21:57:05;;;;;;;2.88;2.67;;;;;;;;;;5115141;28;20106;-66
2023/03/04 21:59:30;;;;;;;5.95;3.50;;;;;;;;;;5115285;28;20020;-65
2023/03/04 22:01:55;;;;;;;5.03;2.22;;;;;;;;;;5115277;28;20034;-66
2023/03/04 22:04:21;;;;;;;4.00;2.53;;;;;;;;;;5113714;28;20126;-65
2023/03/04 22:06:46;;;;;;;4.40;2.58;;;;;;;;;;5114956;28;20110;-65
2023/03/04 22:09:11;;;;;;;8.40;2.75;;;;;;;;;;5114998;28;20061;-65
2023/03/04 22:11:37;;;;;;;5.85;2.20;;;;;;;;;;5114904;28;20044;-65
2023/03/04 22:14:02;;;;;;;5.00;2.92;;;;;;;;;;5114674;28;20066;-65
2023/03/04 22:16:28;;;;;;;3.83;2.20;;;;;;;;;;5114842;28;20035;-66
2023/03/04 22:18:54;;;;;;;4.80;2.95;;;;;;;;;;5114639;28;20400;-65
2023/03/04 22:21:20;;;;;;;4.63;2.38;;;;;;;;;;5114728;28;20036;-65
2023/03/04 22:23:46;;;;;;;6.07;3.63;;;;;;;;;;5114708;28;20055;-65
2023/03/04 22:26:13;;;;;;;5.07;2.80;;;;;;;;;;5114489;28;20044;-66
2023/03/04 22:28:39;;;;;;;4.85;2.90;;;;;;;;;;5114235;28;20044;-66
2023/03/04 22:31:16;;;;;;;5.63;2.65;;;;;;;;;;5113349;28;20024;-66
2023/03/04 22:33:42;;;;;;;4.90;3.20;;;;;;;;;;5113205;28;20501;-65